Du har inga inställningar för hoppväder.nu

Hoppväder.nu

Senast uppdaterat 10:35

UTC-tid

2019-04-23 kl. 08:35


Sol och måne

Solen går upp 5:07 och går ner 21:30 (beräknade cirkatider)
Nästa fullmåne blir om 25 dagar (2019-05-18)

METAR

ESSA (Arlanda, Stockholm)
(15 minuter sedan)
ESSA 230820Z 20011KT CAVOK 16/04 Q1027 NOSIG=



ESSD (Borlänge)
(15 minuter sedan)
ESSD 230820Z 19007KT CAVOK 15/04 Q1025=



EFMA (Mariehamn)
(15 minuter sedan)
EFMA 230820Z 19009KT CAVOK 11/04 Q1028=



ESOW (Västerås)
(15 minuter sedan)
ESOW 230820Z AUTO 17007KT 140V200 9999 NCD 15/05 Q1027=






TAF

ESSA (Arlanda, Stockholm)
(185 minuter sedan)
ESSA 230530Z 2306/2406 18006KT CAVOK=



ESSD (Borlänge)
(5 minuter sedan)
ESSD 230830Z 2309/2315 16007KT CAVOK=



EFMA (Mariehamn)
(193 minuter sedan)
EFMA 230522Z 2306/2315 19010KT CAVOK=



ESOW (Västerås)
ESOW





Kodnycklar till TAF och METAR






LHP

(Gryttjom är område F2c i Norra delen)

ÖVERSIKT FÖR OMRÅDE B UTFÄRDAD 230715
GÄLLANDE DEN 23 APRIL 2019 MELLAN 08 OCH 16 UTC


Väderöversikt

Ett högtryck täcker Sverige

Sikt under 5 kilometer eller molnbas under 1000 fot
Väntas inte förekomma under perioden.

Måttlig eller svår isbildning
Väntas inte förekomma under perioden

Måttlig eller svår turbulens
10-16UTC: Område Södra delen



PROGNOS FÖR OMRÅDE B DEN NORRA DELEN UTFÄRDAD 230715
GÄLLANDE DEN 23 APRIL 2019 MELLAN 08 OCH 16 UTC

Måttlig eller svår turbulens
08-16UTC: I hela området: Väntas inte förekomma under perioden

Måttlig eller svår isbildning
08-16UTC: I hela området: Väntas inte förekomma under perioden

Sikt/Väder/Moln
08-16UTC: I hela området: Sikt >8km. Molnbas >2000ft.

Molnöversida
08-16UTC: I hela området: Ingen prognos

CB/TCU Moln
08-16UTC: I hela området: Väntas inte förekomma under perioden

Nollgradersisoterm
08-16UTC: Noll grader FL050 - FL090.

Vind vid marken
08-10UTC: Område F2c: S/4-8 knop, byar upp till 15 knop.
Område F2b: S/3-6 knop, byar upp till 14 knop.
Område F1b: S/4-11 knop, byar upp till 16 knop.
Område F2d: S-SV/4-7 knop.
Område F1a: S-SV/5-12 knop, byar upp till 17 knop.
Område F2a: S-SV/0-8 knop, byar upp till 16 knop.

10-12UTC: Område F2c: S-SV/4-9 knop, byar upp till 18 knop.
Område F2b: S/4-8 knop, byar upp till 18 knop.
Område F1a: S-SV/6-12 knop, byar upp till 19 knop.
Område F2d: S-SV/5-10 knop, byar upp till 20 knop.
Område F1b: S/4-14 knop, byar upp till 19 knop.

10-14UTC: Område F2a: S-SV/4-10 knop, byar upp till 21 knop.

12-14UTC: Område F2b: S/5-9 knop, byar upp till 20 knop.
Område F1b: S/4-15 knop, byar upp till 22 knop.
Område F2c: S/6-12 knop, byar upp till 22 knop.
Område F2d: S-SV/6-13 knop, byar upp till 23 knop.
Område F1a: S-SV/4-12 knop, byar upp till 20 knop.

14-16UTC: Område F1b: S/4-15 knop, byar upp till 21 knop.
Område F2d: S/4-11 knop, byar upp till 22 knop.
Område F1a: S-SV/4-11 knop, byar upp till 19 knop.
Område F2b: SO-S/4-10 knop, byar upp till 20 knop.
Område F2c: S/5-11 knop, byar upp till 22 knop.
Område F2a: S/2-10 knop, byar upp till 19 knop.


Genomsnittlig vind och temperatur för området
2000ft:
08-10UTC: 220/20kt +9.
10-12UTC: 210/17kt +9.
12-14UTC: 200/16kt +10.
14-16UTC: 190/16kt +10.

FL50:
08-10UTC: 200/18kt +3.
10-12UTC: 210/20kt +2.
12-14UTC: 200/17kt +2.
14-16UTC: 200/16kt +2.

FL100:
08-10UTC: 150/14kt -3.
10-12UTC: 160/15kt -3.
12-14UTC: 190/14kt -3.
14-16UTC: 200/14kt -3.

Lägsta QNH
1023 hPa.

OBS! endast utbredd måttlig eller svår isbildning och turbulens prognostiseras i LLF.
Avsaknad av isbildning och turbulens i prognosen utesluter inte förekomst av lätt isbildning och turbulens.
För indikation på lätt isbildning, var vänlig kontrollera om prognosen för molntopp ligger högre än nollgradersisotermen.
Förekomst av TCU eller CB medför alltid en risk för måttlig eller svår isbildning och turbulens även om det inte framgår explicit av prognosen.





Spotting

Hur fungerar spotthjälpen och Vindkartan?

Markvind är ca 2-4 m/s med byar på 8 m/s.
Vind på 600 m ca 10 m/s.
Vind på 1500 m ca 9 m/s.
Vind på 3000 m ca 7 m/s.
SE-GEE flyger ca 38 m/s över marken på finalen.
Du driver ca 324 m bakåt i frifall. (432 m)
Lämplig spot är 1 sekunder eller 38 m efter gropen.
(4 s eller 152 m)
För små grupper eller ensamhoppare bör man vänta 4-6 sekunder mellan grupperna.
För större grupper bör man vänta 8-10 sekunder mellan grupperna.


Vindkartan

Senast uppdaterad 10:35




All data kommer från LFV.se